Time;durP1;ratioP1;P1;durP2;ratioP2;P2;SDS_P1;SDS_P2;PMS_P1;PMS_P2;Temp;Humidity;BMP_temperature;BMP_pressure;BME280_temperature;BME280_humidity;BME280_pressure;Samples;Min_cycle;Max_cycle;Signal;HPM_P1;HPM_P2
2021/12/17 00:07:03;;;;;;;88.00;30.17;;;8.10;99.90;;;;;;5027261;28;20049;-72
2021/12/17 00:09:29;;;;;;;105.93;32.47;;;8.10;99.90;;;;;;5010229;28;20081;-72
2021/12/17 00:11:55;;;;;;;129.93;34.65;;;8.20;99.90;;;;;;5009947;28;20100;-72
2021/12/17 00:14:27;;;;;;;88.43;28.85;;;8.20;99.90;;;;;;5011046;28;20042;-72
2021/12/17 00:16:54;;;;;;;94.43;31.95;;;8.10;99.90;;;;;;5015568;28;20083;-72
2021/12/17 00:19:41;;;;;;;95.40;31.60;;;8.10;99.90;;;;;;5024474;28;20054;-74
2021/12/17 00:46:31;;;;;;;98.25;35.22;;;8.10;99.90;;;;;;5009822;28;20080;-72
2021/12/17 00:49:57;;;;;;;103.85;33.55;;;8.20;99.90;;;;;;5010943;28;20057;-73
2021/12/17 00:52:23;;;;;;;88.63;31.33;;;8.20;99.90;;;;;;5010697;28;20096;-72
2021/12/17 00:54:49;;;;;;;104.20;33.88;;;8.20;99.90;;;;;;4994507;28;20042;-72
2021/12/17 00:57:18;;;;;;;119.00;35.57;;;8.20;99.90;;;;;;5007160;28;20042;-72
2021/12/17 00:59:47;;;;;;;99.85;32.35;;;8.20;99.90;;;;;;5007450;28;20069;-72
2021/12/17 01:02:18;;;;;;;86.75;32.13;;;8.20;99.90;;;;;;4999246;28;20046;-72
2021/12/17 01:04:49;;;;;;;108.32;32.42;;;8.20;99.90;;;;;;4999676;28;20045;-72
2021/12/17 01:07:17;;;;;;;125.13;34.80;;;8.20;99.90;;;;;;4995400;28;20509;-72
2021/12/17 01:09:45;;;;;;;99.45;33.38;;;8.20;99.90;;;;;;5004066;28;20046;-72
2021/12/17 01:12:11;;;;;;;95.45;31.55;;;8.20;99.90;;;;;;4997313;28;20083;-72
2021/12/17 01:14:36;;;;;;;91.75;31.50;;;8.20;99.90;;;;;;4995710;28;20097;-72
2021/12/17 01:17:03;;;;;;;101.40;32.55;;;8.20;99.90;;;;;;4999427;28;20042;-72
2021/12/17 01:22:30;;;;;;;77.65;28.80;;;8.20;99.90;;;;;;4995371;28;20172;-72
2021/12/17 01:24:54;;;;;;;85.00;29.63;;;8.20;99.90;;;;;;4990063;28;20100;-72
2021/12/17 01:35:36;;;;;;;93.35;30.48;;;8.20;99.90;;;;;;5010112;28;20046;-72
2021/12/17 01:43:50;;;;;;;93.70;30.10;;;8.30;99.90;;;;;;5006756;28;20042;-72
2021/12/17 01:46:21;;;;;;;90.90;30.88;;;8.30;99.90;;;;;;5009967;28;20135;-72
2021/12/17 01:49:16;;;;;;;85.05;31.23;;;8.30;99.90;;;;;;5010045;28;20062;-72
2021/12/17 01:59:54;;;;;;;86.85;28.90;;;8.30;99.90;;;;;;5006847;28;20152;-72
2021/12/17 02:02:21;;;;;;;82.65;29.00;;;8.30;99.90;;;;;;5008881;28;20069;-73
2021/12/17 02:04:46;;;;;;;75.65;24.60;;;8.30;99.90;;;;;;5012133;28;20042;-72
2021/12/17 02:07:12;;;;;;;68.90;25.17;;;8.30;99.90;;;;;;5013224;28;20084;-72
2021/12/17 02:31:43;;;;;;;44.20;14.90;;;8.30;99.90;;;;;;5013347;28;20064;-73
2021/12/17 02:34:29;;;;;;;38.10;14.23;;;8.30;99.90;;;;;;5012522;28;20042;-72
2021/12/17 02:36:58;;;;;;;43.00;15.60;;;8.30;99.90;;;;;;5012154;28;20503;-72
2021/12/17 02:40:00;;;;;;;53.42;16.20;;;8.30;99.90;;;;;;5011577;28;20172;-72
2021/12/17 02:47:36;;;;;;;45.67;15.60;;;8.30;99.90;;;;;;5011767;28;20050;-72
2021/12/17 02:50:02;;;;;;;;;;;8.30;99.90;;;;;;5011543;28;20447;-72
2021/12/17 02:52:31;;;;;;;39.50;14.70;;;8.30;99.90;;;;;;5011158;28;20373;-72
2021/12/17 02:54:58;;;;;;;40.50;14.60;;;8.30;99.90;;;;;;5011632;28;20042;-72
2021/12/17 02:57:25;;;;;;;38.63;15.07;;;8.30;99.90;;;;;;5008583;28;20508;-72
2021/12/17 02:59:51;;;;;;;41.90;14.60;;;8.30;99.90;;;;;;4998764;28;20500;-72
2021/12/17 03:02:18;;;;;;;35.05;14.05;;;8.30;99.90;;;;;;5011625;28;20076;-72
2021/12/17 03:04:44;;;;;;;37.83;14.90;;;8.30;99.90;;;;;;5009255;28;20137;-72
2021/12/17 03:07:12;;;;;;;37.92;15.32;;;8.30;99.90;;;;;;4997896;28;20038;-72
2021/12/17 03:09:57;;;;;;;40.78;15.20;;;8.30;99.90;;;;;;5009567;28;20112;-73
2021/12/17 03:12:30;;;;;;;33.88;12.73;;;8.30;99.90;;;;;;5008798;28;20038;-72
2021/12/17 03:15:05;;;;;;;41.80;14.10;;;8.30;99.90;;;;;;4996149;28;20523;-71
2021/12/17 03:18:02;;;;;;;39.58;13.23;;;8.30;99.90;;;;;;5012325;28;20193;-74
2021/12/17 03:25:45;;;;;;;45.67;14.75;;;8.30;99.90;;;;;;5000589;28;20045;-74
2021/12/17 03:28:11;;;;;;;40.10;14.60;;;8.20;99.90;;;;;;5002593;28;20504;-74
2021/12/17 03:30:36;;;;;;;39.20;14.27;;;8.20;99.90;;;;;;4998866;28;20550;-74
2021/12/17 03:33:03;;;;;;;37.75;14.63;;;8.30;99.90;;;;;;4992311;28;20057;-74
2021/12/17 03:35:28;;;;;;;39.00;14.68;;;8.20;99.90;;;;;;5008288;28;20092;-74
2021/12/17 03:37:54;;;;;;;41.17;15.60;;;8.20;99.90;;;;;;5010679;28;20049;-74
2021/12/17 03:40:20;;;;;;;37.50;13.40;;;8.30;99.90;;;;;;5004945;28;20477;-74
2021/12/17 03:42:49;;;;;;;35.70;13.23;;;8.30;99.90;;;;;;4998620;28;20049;-74
2021/12/17 03:45:16;;;;;;;32.97;13.82;;;8.30;99.90;;;;;;5007509;28;20546;-74
2021/12/17 03:47:42;;;;;;;35.45;13.80;;;8.30;99.90;;;;;;4993217;28;20124;-74
2021/12/17 03:50:08;;;;;;;32.17;12.52;;;8.30;99.90;;;;;;4993002;28;20482;-74
2021/12/17 03:52:34;;;;;;;29.55;11.88;;;8.30;99.90;;;;;;5009459;28;20072;-73
2021/12/17 03:55:00;;;;;;;27.50;12.07;;;8.30;99.90;;;;;;5002685;28;20117;-72
2021/12/17 03:57:25;;;;;;;28.05;11.57;;;8.20;99.90;;;;;;4996161;28;20042;-72
2021/12/17 03:59:51;;;;;;;29.27;12.43;;;8.20;99.90;;;;;;5000700;28;20050;-71
2021/12/17 04:02:17;;;;;;;32.58;12.38;;;8.20;99.90;;;;;;4990381;28;20060;-71
2021/12/17 04:04:43;;;;;;;27.50;11.35;;;8.20;99.90;;;;;;5011058;28;20043;-71
2021/12/17 04:07:09;;;;;;;28.33;11.13;;;8.20;99.90;;;;;;4994804;28;20046;-72
2021/12/17 04:09:35;;;;;;;30.45;11.50;;;8.20;99.90;;;;;;4993363;28;20349;-72
2021/12/17 04:12:03;;;;;;;23.52;11.27;;;8.20;99.90;;;;;;5003976;28;20038;-72
2021/12/17 04:14:43;;;;;;;25.48;11.07;;;8.20;99.90;;;;;;5011070;28;20054;-71
2021/12/17 04:17:08;;;;;;;29.30;10.50;;;8.30;99.90;;;;;;5004816;28;20459;-72
2021/12/17 04:19:35;;;;;;;30.37;10.93;;;8.20;99.90;;;;;;5011213;28;20060;-71
2021/12/17 04:22:00;;;;;;;19.88;9.70;;;8.20;99.90;;;;;;4997594;28;20671;-71
2021/12/17 04:24:26;;;;;;;24.90;10.48;;;8.20;99.90;;;;;;4990668;28;20046;-71
2021/12/17 04:26:52;;;;;;;24.98;10.90;;;8.20;99.90;;;;;;5003888;28;20392;-71
2021/12/17 04:29:19;;;;;;;26.30;11.00;;;8.20;99.90;;;;;;5009497;28;20046;-71
2021/12/17 04:31:51;;;;;;;30.25;11.23;;;8.20;99.90;;;;;;5007474;28;20088;-71
2021/12/17 04:34:18;;;;;;;29.92;12.35;;;8.20;99.90;;;;;;5009991;28;20509;-72
2021/12/17 04:36:45;;;;;;;;;;;8.20;99.90;;;;;;5010124;28;20042;-71
2021/12/17 04:39:11;;;;;;;26.73;10.40;;;8.20;99.90;;;;;;5010862;28;20300;-71
2021/12/17 04:41:43;;;;;;;27.98;11.98;;;8.20;99.90;;;;;;5001063;28;20038;-71
2021/12/17 04:44:18;;;;;;;24.40;10.70;;;8.20;99.90;;;;;;4991001;28;20112;-71
2021/12/17 04:46:51;;;;;;;32.80;11.30;;;8.20;99.90;;;;;;4996073;28;20052;-72
2021/12/17 04:57:37;;;;;;;22.90;10.40;;;8.20;99.90;;;;;;5010537;28;20527;-71
2021/12/17 05:00:11;;;;;;;29.17;11.30;;;8.20;99.90;;;;;;5009119;28;20076;-72
2021/12/17 05:02:42;;;;;;;23.85;11.30;;;8.20;99.90;;;;;;5008329;28;20044;-72
2021/12/17 05:05:09;;;;;;;29.05;11.35;;;8.20;99.90;;;;;;5010882;28;20077;-71
2021/12/17 05:07:39;;;;;;;27.30;11.63;;;8.20;99.90;;;;;;5008777;28;20045;-72
2021/12/17 05:18:25;;;;;;;25.48;10.23;;;8.20;99.90;;;;;;5008865;28;20144;-72
2021/12/17 05:21:00;;;;;;;26.50;11.07;;;8.20;99.90;;;;;;5009088;28;20081;-71
2021/12/17 05:23:31;;;;;;;24.60;10.80;;;8.20;99.90;;;;;;5009619;28;20050;-72
2021/12/17 05:26:00;;;;;;;27.75;11.73;;;8.20;99.90;;;;;;5009695;28;20095;-71
2021/12/17 05:28:26;;;;;;;23.90;11.23;;;8.20;99.90;;;;;;5010183;28;20038;-71
2021/12/17 05:30:53;;;;;;;23.73;10.25;;;8.20;99.90;;;;;;5010582;28;20052;-71
2021/12/17 05:33:19;;;;;;;;;;;8.10;99.90;;;;;;5008259;28;20050;-72
2021/12/17 05:35:46;;;;;;;27.58;11.13;;;8.10;99.90;;;;;;5010296;28;19967;-72
2021/12/17 05:38:13;;;;;;;30.48;12.40;;;8.10;99.90;;;;;;5013719;28;20034;-72
2021/12/17 05:40:40;;;;;;;28.33;11.45;;;8.20;99.90;;;;;;5012743;28;20034;-72
2021/12/17 05:43:06;;;;;;;23.73;10.63;;;8.10;99.90;;;;;;5008540;28;20076;-72
2021/12/17 05:45:47;;;;;;;24.00;11.18;;;8.10;99.90;;;;;;5014516;28;20046;-74
2021/12/17 05:48:15;;;;;;;26.75;10.80;;;8.10;99.90;;;;;;5014012;28;20057;-74
2021/12/17 05:50:43;;;;;;;28.55;10.88;;;8.10;99.90;;;;;;5013883;28;20034;-74
2021/12/17 05:53:09;;;;;;;18.50;9.65;;;8.10;99.90;;;;;;5013608;28;20049;-74
2021/12/17 05:55:35;;;;;;;27.02;11.50;;;8.10;99.90;;;;;;5012029;28;20049;-74
2021/12/17 05:58:02;;;;;;;;;;;8.10;99.90;;;;;;5012163;28;20062;-74
2021/12/17 06:00:31;;;;;;;25.33;9.98;;;8.00;99.90;;;;;;5009697;28;19929;-74
2021/12/17 06:02:58;;;;;;;20.45;9.68;;;8.00;99.90;;;;;;4997048;28;20481;-74
2021/12/17 06:05:24;;;;;;;31.25;10.48;;;8.00;99.90;;;;;;5000550;28;20053;-74
2021/12/17 06:07:50;;;;;;;23.98;10.10;;;7.90;99.90;;;;;;5001112;28;20046;-74
2021/12/17 06:10:16;;;;;;;62.97;10.73;;;7.90;99.90;;;;;;4993740;28;20100;-74
2021/12/17 06:12:42;;;;;;;21.25;10.43;;;7.90;99.90;;;;;;4994027;28;20050;-74
2021/12/17 06:15:11;;;;;;;26.25;9.70;;;7.90;99.90;;;;;;5012268;28;20463;-74
2021/12/17 06:17:37;;;;;;;31.30;11.60;;;7.80;99.90;;;;;;5012168;28;20046;-74
2021/12/17 06:20:05;;;;;;;21.75;10.55;;;7.90;99.90;;;;;;5002440;28;20400;-74
2021/12/17 06:22:31;;;;;;;20.98;9.32;;;7.90;99.90;;;;;;5012691;28;20042;-74
2021/12/17 06:24:56;;;;;;;27.17;11.27;;;7.80;99.90;;;;;;5013336;28;20542;-74
2021/12/17 06:27:23;;;;;;;23.43;10.07;;;7.80;99.90;;;;;;5012628;28;20107;-74
2021/12/17 06:29:49;;;;;;;22.85;11.00;;;7.80;99.90;;;;;;5012028;28;20053;-74
2021/12/17 06:32:15;;;;;;;36.60;13.90;;;7.80;99.90;;;;;;5011351;28;20042;-72
2021/12/17 06:34:41;;;;;;;29.67;12.07;;;7.80;99.90;;;;;;5013504;28;20281;-72
2021/12/17 06:37:07;;;;;;;30.83;12.53;;;7.80;99.90;;;;;;5012817;28;20044;-73
2021/12/17 06:39:33;;;;;;;35.60;13.77;;;7.80;99.90;;;;;;5011949;28;20323;-73
2021/12/17 06:41:59;;;;;;;39.05;13.75;;;7.80;99.90;;;;;;5012698;28;20050;-72
2021/12/17 06:44:26;;;;;;;33.90;13.93;;;7.80;99.90;;;;;;5012248;28;20053;-73
2021/12/17 06:59:56;;;;;;;40.40;15.85;;;7.90;99.90;;;;;;4993439;28;20152;-72
2021/12/17 07:10:40;;;;;;;41.55;15.63;;;7.80;99.90;;;;;;5010415;28;20049;-73
2021/12/17 07:19:10;;;;;;;38.42;15.25;;;7.80;99.90;;;;;;5002357;28;20395;-73
2021/12/17 07:34:12;;;;;;;45.20;16.07;;;7.90;99.90;;;;;;5010294;28;20050;-72
2021/12/17 07:36:43;;;;;;;33.05;13.77;;;7.90;99.90;;;;;;5012030;28;20060;-72
2021/12/17 07:39:10;;;;;;;30.55;12.50;;;7.80;99.90;;;;;;5012165;28;20121;-72
2021/12/17 07:41:36;;;;;;;31.02;12.93;;;7.90;99.90;;;;;;5011492;28;20053;-73
2021/12/17 07:44:02;;;;;;;33.75;13.13;;;7.90;99.90;;;;;;5010903;28;20053;-72
2021/12/17 07:46:28;;;;;;;;;;;7.90;99.90;;;;;;5012127;28;20049;-72
2021/12/17 07:48:54;;;;;;;36.33;14.43;;;7.90;99.90;;;;;;5010145;28;20019;-72
2021/12/17 07:51:22;;;;;;;27.47;13.07;;;7.90;99.90;;;;;;5010397;28;20089;-72
2021/12/17 07:53:49;;;;;;;30.00;12.73;;;7.90;99.90;;;;;;5009471;28;20386;-72
2021/12/17 07:56:16;;;;;;;;;;;7.90;99.90;;;;;;5007870;28;20046;-72
2021/12/17 07:58:42;;;;;;;32.13;12.88;;;7.90;99.90;;;;;;5007417;28;19922;-72
2021/12/17 08:01:10;;;;;;;33.33;13.00;;;7.90;99.90;;;;;;5005319;28;20515;-72
2021/12/17 08:03:37;;;;;;;27.48;12.80;;;7.90;99.90;;;;;;5005989;28;20089;-72
2021/12/17 08:06:03;;;;;;;30.15;13.52;;;8.00;99.90;;;;;;5009156;28;20050;-72
2021/12/17 08:08:28;;;;;;;32.80;12.98;;;8.00;99.90;;;;;;5011783;28;20044;-71
2021/12/17 08:10:54;;;;;;;28.38;12.32;;;8.00;99.90;;;;;;5006723;28;20034;-72
2021/12/17 08:13:30;;;;;;;33.13;13.63;;;8.00;99.90;;;;;;5010612;28;20137;-71
2021/12/17 08:24:43;;;;;;;32.08;12.77;;;8.10;99.90;;;;;;5004814;28;20050;-71
2021/12/17 08:31:59;;;;;;;32.08;13.63;;;8.10;99.90;;;;;;5007001;28;20055;-71
2021/12/17 08:34:25;;;;;;;34.92;15.05;;;8.10;99.90;;;;;;4993539;28;20441;-71
2021/12/17 08:36:51;;;;;;;31.30;14.43;;;8.10;99.90;;;;;;5019852;28;20194;-71
2021/12/17 08:39:16;;;;;;;38.80;14.45;;;8.10;99.90;;;;;;5003226;28;20046;-71
2021/12/17 08:41:42;;;;;;;32.00;12.77;;;8.10;99.90;;;;;;4990732;28;20039;-71
2021/12/17 08:44:08;;;;;;;35.53;15.30;;;8.20;99.90;;;;;;4989656;28;20050;-71
2021/12/17 08:46:35;;;;;;;42.55;15.13;;;8.20;99.90;;;;;;4990268;28;20513;-71
2021/12/17 08:49:02;;;;;;;36.47;13.80;;;8.20;99.90;;;;;;4989927;28;20353;-71
2021/12/17 08:51:27;;;;;;;;;;;8.20;99.90;;;;;;5000578;28;20057;-71
2021/12/17 08:53:53;;;;;;;34.00;13.93;;;8.20;99.90;;;;;;4990447;28;19922;-71
2021/12/17 08:56:22;;;;;;;33.73;13.43;;;8.20;99.90;;;;;;5002802;28;20052;-71
2021/12/17 08:58:51;;;;;;;28.90;13.20;;;8.20;99.90;;;;;;5010509;28;20045;-71
2021/12/17 09:01:17;;;;;;;32.22;14.40;;;8.20;99.90;;;;;;5009384;28;20049;-70
2021/12/17 09:03:42;;;;;;;35.42;14.50;;;8.20;99.90;;;;;;5008666;28;20060;-70
2021/12/17 09:06:08;;;;;;;37.13;15.17;;;8.30;99.90;;;;;;5007320;28;20053;-71
2021/12/17 09:08:33;;;;;;;40.83;15.77;;;8.20;99.90;;;;;;5006625;28;20484;-71
2021/12/17 09:10:59;;;;;;;37.93;14.60;;;8.30;99.90;;;;;;5009267;28;20289;-71
2021/12/17 09:13:26;;;;;;;42.65;16.02;;;8.30;99.90;;;;;;5010233;28;20049;-71
2021/12/17 09:15:57;;;;;;;33.55;14.05;;;8.30;99.90;;;;;;5011021;28;20164;-70
2021/12/17 09:18:23;;;;;;;34.63;15.52;;;8.30;99.90;;;;;;4996366;28;20049;-70
2021/12/17 09:20:49;;;;;;;36.90;15.05;;;8.30;99.90;;;;;;4990744;28;20042;-70
2021/12/17 09:23:15;;;;;;;32.72;14.98;;;8.40;99.90;;;;;;4994951;28;20049;-70
2021/12/17 09:25:40;;;;;;;34.53;15.05;;;8.40;99.90;;;;;;4991403;28;20092;-70
2021/12/17 09:28:06;;;;;;;38.07;15.40;;;8.40;99.90;;;;;;5010249;28;20428;-70
2021/12/17 09:30:32;;;;;;;33.90;14.07;;;8.30;99.90;;;;;;5010148;28;20095;-70
2021/12/17 09:32:58;;;;;;;36.85;14.75;;;8.40;99.90;;;;;;5007927;28;20393;-70
2021/12/17 09:35:24;;;;;;;37.30;16.02;;;8.40;99.90;;;;;;5010656;28;20053;-70
2021/12/17 09:37:51;;;;;;;34.95;16.17;;;8.40;99.90;;;;;;5006102;28;20127;-70
2021/12/17 09:40:17;;;;;;;;;;;8.40;99.90;;;;;;5006865;28;20395;-73
2021/12/17 09:42:44;;;;;;;33.08;14.07;;;8.40;99.90;;;;;;5009564;28;20020;-74
2021/12/17 09:45:12;;;;;;;40.33;16.50;;;8.50;99.90;;;;;;5001913;28;20474;-75
2021/12/17 09:47:39;;;;;;;31.02;14.15;;;8.50;99.90;;;;;;5000112;28;20046;-73
2021/12/17 09:50:05;;;;;;;;;;;8.50;99.90;;;;;;5007187;28;20046;-75
2021/12/17 09:52:30;;;;;;;31.15;14.60;;;8.50;99.90;;;;;;4991763;28;20410;-76
2021/12/17 09:54:57;;;;;;;32.87;14.60;;;8.50;99.90;;;;;;5009998;28;20038;-75
2021/12/17 09:57:25;;;;;;;31.83;13.77;;;8.60;99.90;;;;;;5004136;28;20489;-75
2021/12/17 09:59:50;;;;;;;32.20;14.45;;;8.60;99.90;;;;;;5002673;28;20050;-75
2021/12/17 10:02:16;;;;;;;23.07;12.43;;;8.60;99.90;;;;;;5009382;28;20041;-75
2021/12/17 10:04:42;;;;;;;27.33;13.37;;;8.60;99.90;;;;;;4990747;28;20070;-75
2021/12/17 10:07:38;;;;;;;;;;;8.60;99.90;;;;;;4998672;28;20117;-75
2021/12/17 10:10:05;;;;;;;25.50;13.10;;;8.60;99.90;;;;;;4970074;28;19932;-75
2021/12/17 10:12:34;;;;;;;23.15;12.07;;;8.70;99.90;;;;;;4985184;28;20033;-76
2021/12/17 10:15:12;;;;;;;21.40;12.18;;;8.70;99.90;;;;;;5019168;28;20047;-75
2021/12/17 10:17:58;;;;;;;23.10;11.95;;;8.70;99.90;;;;;;4998638;28;20116;-75
2021/12/17 10:20:25;;;;;;;26.83;12.05;;;8.70;99.90;;;;;;4992729;28;20054;-75
2021/12/17 10:23:05;;;;;;;23.20;11.38;;;8.70;99.90;;;;;;4996454;28;20065;-77
2021/12/17 10:25:33;;;;;;;21.58;10.32;;;8.70;99.90;;;;;;5014809;28;20042;-75
2021/12/17 10:28:01;;;;;;;26.58;12.00;;;8.80;99.90;;;;;;5013529;28;20034;-75
2021/12/17 10:30:28;;;;;;;23.35;11.15;;;8.80;99.90;;;;;;5003776;28;20104;-75
2021/12/17 10:32:56;;;;;;;22.08;11.73;;;8.80;99.90;;;;;;5000387;28;20041;-75
2021/12/17 10:35:24;;;;;;;22.48;11.48;;;8.80;99.90;;;;;;5001458;28;20104;-75
2021/12/17 10:38:11;;;;;;;23.38;11.93;;;8.90;99.90;;;;;;5010524;28;20033;-75
2021/12/17 10:40:45;;;;;;;26.00;11.63;;;8.90;99.90;;;;;;5012736;28;20045;-75
2021/12/17 10:43:33;;;;;;;22.42;12.32;;;8.90;99.90;;;;;;5012950;28;20408;-75
2021/12/17 10:46:11;;;;;;;21.33;11.45;;;8.90;99.90;;;;;;5007002;28;20046;-75
2021/12/17 10:51:28;;;;;;;19.10;10.10;;;9.00;99.90;;;;;;5008443;28;20092;-75
2021/12/17 10:53:56;;;;;;;16.45;9.13;;;9.00;99.90;;;;;;4996936;28;20097;-75
2021/12/17 10:56:24;;;;;;;17.50;10.52;;;9.00;99.90;;;;;;5004558;28;20060;-75
2021/12/17 10:59:18;;;;;;;19.20;11.60;;;9.00;99.90;;;;;;5011579;28;20030;-75
2021/12/17 11:01:58;;;;;;;20.17;11.20;;;9.00;99.90;;;;;;5007247;28;20065;-75
2021/12/17 11:04:25;;;;;;;18.33;10.00;;;9.10;99.90;;;;;;5011715;28;20538;-75
2021/12/17 11:07:01;;;;;;;18.17;11.25;;;9.10;99.90;;;;;;4999319;28;20499;-76
2021/12/17 11:09:39;;;;;;;15.60;9.95;;;9.10;99.90;;;;;;5004244;28;20052;-75
2021/12/17 11:12:12;;;;;;;18.05;9.95;;;9.10;99.90;;;;;;4996669;28;20065;-76
2021/12/17 11:14:38;;;;;;;18.67;9.38;;;9.20;99.90;;;;;;4992296;28;20050;-75
2021/12/17 11:17:04;;;;;;;17.27;9.88;;;9.20;99.90;;;;;;5006338;28;20543;-75
2021/12/17 11:19:31;;;;;;;17.58;10.13;;;9.20;99.90;;;;;;5000490;28;20038;-76
2021/12/17 11:21:57;;;;;;;17.48;10.27;;;9.20;99.90;;;;;;5008657;28;20100;-75
2021/12/17 11:24:23;;;;;;;16.98;9.68;;;9.20;99.90;;;;;;5011459;28;20042;-75
2021/12/17 11:26:50;;;;;;;12.60;8.25;;;9.30;99.90;;;;;;5007771;28;20053;-76
2021/12/17 11:29:16;;;;;;;13.57;8.77;;;9.30;99.90;;;;;;5010511;28;20215;-75
2021/12/17 11:31:42;;;;;;;;;;;9.30;99.90;;;;;;5008771;28;20052;-75
2021/12/17 11:34:09;;;;;;;15.25;8.77;;;9.30;99.90;;;;;;5002073;28;19922;-75
2021/12/17 11:36:35;;;;;;;16.63;8.88;;;9.30;99.90;;;;;;4999595;28;20121;-75
2021/12/17 11:39:21;;;;;;;21.88;9.48;;;9.30;99.90;;;;;;5007485;28;20467;-75
2021/12/17 11:42:08;;;;;;;13.55;8.45;;;9.30;99.90;;;;;;5010432;28;20050;-75
2021/12/17 11:44:42;;;;;;;16.88;9.02;;;9.30;99.90;;;;;;5017904;28;20061;-76
2021/12/17 11:47:12;;;;;;;14.60;8.50;;;9.30;99.90;;;;;;5003504;28;20038;-75
2021/12/17 11:49:49;;;;;;;12.55;8.48;;;9.40;99.90;;;;;;5011736;28;20045;-75
2021/12/17 11:52:35;;;;;;;14.35;8.48;;;9.30;99.90;;;;;;4999061;28;20507;-75
2021/12/17 11:55:20;;;;;;;14.95;8.43;;;9.30;99.90;;;;;;4998962;28;20054;-76
2021/12/17 11:57:45;;;;;;;13.38;8.18;;;9.30;99.90;;;;;;5008511;28;20049;-75
2021/12/17 12:00:17;;;;;;;12.65;8.80;;;9.40;99.90;;;;;;5010215;28;20388;-76
2021/12/17 12:02:54;;;;;;;13.13;8.63;;;9.40;99.90;;;;;;5003485;28;20064;-75
2021/12/17 12:05:37;;;;;;;14.02;8.05;;;9.40;99.90;;;;;;5012086;28;20029;-75
2021/12/17 12:08:47;;;;;;;13.88;7.97;;;9.40;99.90;;;;;;5010317;28;20050;-75
2021/12/17 12:11:22;;;;;;;13.45;8.35;;;9.40;99.90;;;;;;5009888;28;20060;-75
2021/12/17 12:13:52;;;;;;;11.95;8.02;;;9.50;99.90;;;;;;5009030;28;20137;-74
2021/12/17 12:16:20;;;;;;;17.63;8.60;;;9.50;99.90;;;;;;5011395;28;20046;-74
2021/12/17 12:19:12;;;;;;;34.10;9.73;;;9.50;99.90;;;;;;5010230;28;20046;-75
2021/12/17 12:22:31;;;;;;;19.05;9.63;;;9.50;99.90;;;;;;5107170;27;20353;-66
2021/12/17 12:25:29;;;;;;;14.60;9.40;;;9.50;99.90;;;;;;5100984;28;20044;-65
2021/12/17 12:27:55;;;;;;;;;;;9.50;99.90;;;;;;5098285;28;20162;-66
2021/12/17 12:30:42;;;;;;;14.27;8.32;;;9.50;99.90;;;;;;5103703;28;20383;-65
2021/12/17 12:33:09;;;;;;;14.70;9.13;;;9.50;99.90;;;;;;5096886;28;20048;-66
2021/12/17 12:35:35;;;;;;;15.85;9.30;;;9.50;99.90;;;;;;5091379;28;20043;-66
2021/12/17 12:38:19;;;;;;;16.83;9.75;;;9.50;99.90;;;;;;5089050;28;20044;-66
2021/12/17 12:40:54;;;;;;;15.38;9.30;;;9.50;99.90;;;;;;5093208;28;20089;-66
2021/12/17 12:43:34;;;;;;;18.73;11.48;;;9.50;99.90;;;;;;5088879;28;20048;-66
2021/12/17 12:46:00;;;;;;;18.80;10.02;;;9.50;99.90;;;;;;5087416;28;20028;-66
2021/12/17 12:48:39;;;;;;;13.83;9.80;;;9.50;99.90;;;;;;5087677;28;20044;-66
2021/12/17 12:51:21;;;;;;;15.13;10.23;;;9.40;99.90;;;;;;5098406;28;20052;-66
2021/12/17 12:54:07;;;;;;;16.02;10.13;;;9.40;99.90;;;;;;5096108;28;20036;-66
2021/12/17 12:56:33;;;;;;;16.40;9.43;;;9.50;99.90;;;;;;5074364;28;20044;-65
2021/12/17 12:58:59;;;;;;;19.58;11.20;;;9.50;99.90;;;;;;5101965;28;20086;-66
2021/12/17 13:01:25;;;;;;;18.80;10.25;;;9.40;99.90;;;;;;5099074;28;20431;-66
2021/12/17 13:03:51;;;;;;;18.55;11.77;;;9.50;99.90;;;;;;5086572;28;20030;-67
2021/12/17 13:06:18;;;;;;;18.40;11.82;;;9.50;99.90;;;;;;5093014;28;20501;-66
2021/12/17 13:08:55;;;;;;;19.42;11.32;;;9.50;99.90;;;;;;5093768;28;20036;-65
2021/12/17 13:11:21;;;;;;;20.60;11.43;;;9.50;99.90;;;;;;5089284;28;20136;-66
2021/12/17 13:16:23;;;;;;;19.17;12.77;;;9.60;99.90;;;;;;5091567;28;20062;-66
2021/12/17 13:24:13;;;;;;;17.38;10.45;;;9.60;99.90;;;;;;5095328;28;20102;-66
2021/12/17 13:26:49;;;;;;;18.27;9.70;;;9.60;99.90;;;;;;5093634;28;20040;-66
2021/12/17 13:29:20;;;;;;;14.57;8.77;;;9.60;99.90;;;;;;5086902;28;20037;-65
2021/12/17 13:31:56;;;;;;;13.60;7.90;;;9.60;99.90;;;;;;5085367;28;20138;-66
2021/12/17 13:34:30;;;;;;;11.27;7.20;;;9.60;99.90;;;;;;5075051;28;20093;-66
2021/12/17 13:36:58;;;;;;;10.82;7.40;;;9.60;99.90;;;;;;5083093;28;20041;-66
2021/12/17 13:39:27;;;;;;;12.57;6.40;;;9.60;99.90;;;;;;5079401;28;20116;-66
2021/12/17 13:41:53;;;;;;;9.05;6.15;;;9.60;99.90;;;;;;5082567;28;20048;-66
2021/12/17 13:44:39;;;;;;;9.90;6.53;;;9.60;99.90;;;;;;5082022;28;20039;-66
2021/12/17 13:47:21;;;;;;;12.30;6.38;;;9.60;99.90;;;;;;5078768;28;20036;-65
2021/12/17 13:49:56;;;;;;;9.63;6.10;;;9.60;99.90;;;;;;5081266;28;20475;-65
2021/12/17 13:52:27;;;;;;;11.55;6.30;;;9.60;99.90;;;;;;5081235;28;20040;-66
2021/12/17 13:54:54;;;;;;;9.20;6.38;;;9.60;99.90;;;;;;5080862;28;20396;-66
2021/12/17 13:57:23;;;;;;;11.65;6.70;;;9.60;99.90;;;;;;5081309;28;20028;-66
2021/12/17 13:59:49;;;;;;;9.93;6.53;;;9.60;99.90;;;;;;5083594;28;20047;-67
2021/12/17 14:02:17;;;;;;;11.35;7.28;;;9.60;99.90;;;;;;5079361;28;20408;-66
2021/12/17 14:05:05;;;;;;;10.48;7.47;;;9.60;99.90;;;;;;5079777;28;20028;-66
2021/12/17 14:07:32;;;;;;;8.50;5.63;;;9.60;99.90;;;;;;5079372;28;20035;-66
2021/12/17 14:10:10;;;;;;;12.30;6.72;;;9.60;99.90;;;;;;5080858;28;20047;-66
2021/12/17 14:12:41;;;;;;;8.55;6.07;;;9.50;99.90;;;;;;5063174;28;20041;-66
2021/12/17 14:15:19;;;;;;;13.52;6.78;;;9.50;99.90;;;;;;5078442;28;20089;-65
2021/12/17 14:17:48;;;;;;;12.55;8.02;;;9.50;99.90;;;;;;5078229;28;20043;-66
2021/12/17 14:20:21;;;;;;;12.20;7.88;;;9.50;99.90;;;;;;5081090;28;20043;-66
2021/12/17 14:22:48;;;;;;;12.98;7.35;;;9.50;99.90;;;;;;5078155;28;20028;-66
2021/12/17 14:25:31;;;;;;;14.80;8.23;;;9.50;99.90;;;;;;5081546;28;20044;-66
2021/12/17 14:28:00;;;;;;;10.95;8.30;;;9.50;99.90;;;;;;5080841;28;20682;-66
2021/12/17 14:30:35;;;;;;;10.82;8.18;;;9.50;99.90;;;;;;5078436;28;20055;-65
2021/12/17 14:33:12;;;;;;;14.88;8.50;;;9.50;99.90;;;;;;5081516;28;20040;-66
2021/12/17 14:35:46;;;;;;;14.05;8.73;;;9.40;99.90;;;;;;5081606;28;20048;-66
2021/12/17 14:38:13;;;;;;;11.88;7.97;;;9.40;99.90;;;;;;5080347;28;20040;-66
2021/12/17 14:40:51;;;;;;;;;;;9.40;99.90;;;;;;5080389;28;20559;-66
2021/12/17 14:43:36;;;;;;;13.63;8.13;;;9.40;99.90;;;;;;5080784;28;19924;-66
2021/12/17 14:48:54;;;;;;;14.63;8.57;;;9.40;99.90;;;;;;5076243;28;20044;-66
2021/12/17 15:04:48;;;;;;;10.80;6.03;;;9.40;99.90;;;;;;5077786;28;20519;-67
2021/12/17 15:07:14;;;;;;;8.43;6.10;;;9.40;99.90;;;;;;5078296;28;20044;-68
2021/12/17 15:09:43;;;;;;;10.63;5.55;;;9.40;99.90;;;;;;5076492;28;20051;-65
2021/12/17 15:14:52;;;;;;;8.25;5.53;;;9.30;99.90;;;;;;5079012;28;20501;-65
2021/12/17 15:17:18;;;;;;;5.93;4.95;;;9.40;99.90;;;;;;5077009;28;20112;-65
2021/12/17 15:19:43;;;;;;;8.20;5.03;;;9.30;99.90;;;;;;5073811;28;20037;-66
2021/12/17 15:22:09;;;;;;;10.77;6.00;;;9.30;99.90;;;;;;5075279;28;20139;-68
2021/12/17 15:24:35;;;;;;;8.47;5.63;;;9.30;99.90;;;;;;5076035;28;20146;-68
2021/12/17 15:27:01;;;;;;;10.73;6.75;;;9.30;99.90;;;;;;5064806;28;20039;-68
2021/12/17 15:29:27;;;;;;;13.27;7.10;;;9.30;99.90;;;;;;5072993;28;20103;-68
2021/12/17 15:31:53;;;;;;;13.85;7.30;;;9.30;99.90;;;;;;5087484;28;20319;-68
2021/12/17 15:34:19;;;;;;;13.43;7.82;;;9.30;99.90;;;;;;5078871;28;20063;-68
2021/12/17 15:36:44;;;;;;;14.57;8.82;;;9.20;99.90;;;;;;5080785;28;20071;-66
2021/12/17 15:39:10;;;;;;;12.87;8.83;;;9.30;99.90;;;;;;5069379;28;20361;-66
2021/12/17 15:41:39;;;;;;;14.17;8.50;;;9.30;99.90;;;;;;5084591;28;20044;-66
2021/12/17 15:44:06;;;;;;;13.00;8.27;;;9.20;99.90;;;;;;5089086;28;20449;-65
2021/12/17 15:46:32;;;;;;;9.75;6.95;;;9.30;99.90;;;;;;5076803;28;20044;-66
2021/12/17 15:48:57;;;;;;;7.27;4.00;;;9.30;99.90;;;;;;5070270;28;20050;-65
2021/12/17 15:51:23;;;;;;;4.27;3.07;;;9.30;99.90;;;;;;5082039;28;20304;-66
2021/12/17 15:53:48;;;;;;;3.83;2.57;;;9.20;99.90;;;;;;5089583;28;20378;-66
2021/12/17 15:56:14;;;;;;;3.57;2.70;;;9.20;99.90;;;;;;5083365;28;20039;-66
2021/12/17 15:58:39;;;;;;;4.63;2.77;;;9.20;99.90;;;;;;5079866;28;20081;-65
2021/12/17 16:01:05;;;;;;;3.17;2.67;;;9.20;99.90;;;;;;5082026;28;20119;-66
2021/12/17 16:03:33;;;;;;;4.83;2.80;;;9.20;99.90;;;;;;5070289;28;20044;-66
2021/12/17 16:06:00;;;;;;;5.65;3.40;;;9.20;99.90;;;;;;5075022;28;20377;-67
2021/12/17 16:08:26;;;;;;;3.75;2.95;;;9.10;99.90;;;;;;5073118;28;20044;-65